createdAt,value
2018-02-07T21:41:52.966Z,101305.00
2018-02-07T21:44:20.331Z,101297.80
2018-02-07T21:46:47.498Z,101297.23
2018-02-07T21:49:14.587Z,101278.44
2018-02-07T21:51:41.735Z,101265.98
2018-02-07T21:54:08.912Z,101270.72
2018-02-07T21:56:36.407Z,101277.63
2018-02-07T21:59:03.689Z,101289.09
2018-02-07T22:01:31.251Z,101285.70
2018-02-07T22:03:58.688Z,101265.57
2018-02-07T22:06:26.315Z,101245.67
2018-02-07T22:08:53.742Z,101241.62
2018-02-07T22:11:21.384Z,101235.95
2018-02-07T22:13:48.725Z,101239.45
2018-02-07T22:16:16.365Z,101231.45
2018-02-07T22:18:43.770Z,101219.41
2018-02-07T22:21:11.661Z,101212.53
2018-02-07T22:23:39.193Z,101219.95
2018-02-07T22:26:06.653Z,101231.59
2018-02-07T22:28:34.364Z,101245.91
2018-02-07T22:31:01.779Z,101241.44
2018-02-07T22:33:29.588Z,101237.52
2018-02-07T22:35:56.800Z,101223.98
2018-02-07T22:38:24.639Z,101214.62
2018-02-07T22:40:52.368Z,101215.71
2018-02-07T22:43:19.771Z,101211.28
2018-02-07T22:45:47.655Z,101216.02
2018-02-07T22:48:15.232Z,101226.99
2018-02-07T22:50:42.650Z,101242.39
2018-02-07T22:53:10.260Z,101241.47
2018-02-07T22:55:37.701Z,101242.66
2018-02-07T22:58:05.418Z,101232.23
2018-02-07T23:00:32.725Z,101214.39
2018-02-07T23:03:00.171Z,101220.03
2018-02-07T23:05:27.593Z,101220.70
2018-02-07T23:07:54.774Z,101205.26
2018-02-07T23:10:22.393Z,101205.30
2018-02-07T23:12:49.712Z,101203.28
2018-02-07T23:15:17.253Z,101194.25
2018-02-07T23:17:44.638Z,101195.45
2018-02-07T23:20:11.931Z,101215.49
2018-02-07T23:22:39.593Z,101221.73
2018-02-07T23:25:06.706Z,101211.05
2018-02-07T23:27:34.229Z,101226.59
2018-02-07T23:30:01.689Z,101220.78
2018-02-07T23:32:29.210Z,101215.22
2018-02-07T23:34:56.688Z,101211.70
2018-02-07T23:37:24.246Z,101192.34
2018-02-07T23:39:51.682Z,101169.48
2018-02-07T23:42:19.343Z,101150.83
2018-02-07T23:44:46.715Z,101143.11
2018-02-07T23:47:14.370Z,101142.84
2018-02-07T23:49:41.689Z,101142.55
2018-02-07T23:52:09.337Z,101156.91
2018-02-07T23:54:36.708Z,101163.77
2018-02-07T23:57:04.224Z,101155.53
2018-02-07T23:59:31.607Z,101145.27
